sensor_id;sensor_type;location;lat;lon;timestamp;temperature;humidity
8436;DHT22;4255;48.730;9.156;2022-10-31T00:00:56;14.80;99.90
8436;DHT22;4255;48.730;9.156;2022-10-31T00:03:22;14.70;99.90
8436;DHT22;4255;48.730;9.156;2022-10-31T00:05:49;14.70;99.90
8436;DHT22;4255;48.730;9.156;2022-10-31T00:08:15;14.80;99.90
8436;DHT22;4255;48.730;9.156;2022-10-31T00:10:42;14.60;99.90
8436;DHT22;4255;48.730;9.156;2022-10-31T00:13:09;14.60;99.90
8436;DHT22;4255;48.730;9.156;2022-10-31T00:15:36;14.60;99.90
8436;DHT22;4255;48.730;9.156;2022-10-31T00:18:03;14.60;99.90
8436;DHT22;4255;48.730;9.156;2022-10-31T00:20:29;14.60;99.90
8436;DHT22;4255;48.730;9.156;2022-10-31T00:22:59;14.60;99.90
8436;DHT22;4255;48.730;9.156;2022-10-31T00:25:26;14.50;99.90
8436;DHT22;4255;48.730;9.156;2022-10-31T00:27:52;14.40;99.90
8436;DHT22;4255;48.730;9.156;2022-10-31T00:30:18;14.40;99.90
8436;DHT22;4255;48.730;9.156;2022-10-31T00:32:43;14.40;99.90
8436;DHT22;4255;48.730;9.156;2022-10-31T00:35:09;14.40;99.90
8436;DHT22;4255;48.730;9.156;2022-10-31T00:37:35;14.40;99.90
8436;DHT22;4255;48.730;9.156;2022-10-31T00:40:01;14.40;99.90
8436;DHT22;4255;48.730;9.156;2022-10-31T00:42:26;14.30;99.90
8436;DHT22;4255;48.730;9.156;2022-10-31T00:44:52;14.30;99.90
8436;DHT22;4255;48.730;9.156;2022-10-31T00:47:17;14.30;99.90
8436;DHT22;4255;48.730;9.156;2022-10-31T00:49:43;14.20;99.90
8436;DHT22;4255;48.730;9.156;2022-10-31T00:52:08;14.20;99.90
8436;DHT22;4255;48.730;9.156;2022-10-31T00:54:34;14.10;99.90
8436;DHT22;4255;48.730;9.156;2022-10-31T00:56:59;14.10;99.90
8436;DHT22;4255;48.730;9.156;2022-10-31T00:59:25;14.10;99.90
8436;DHT22;4255;48.730;9.156;2022-10-31T01:01:51;14.00;99.90
8436;DHT22;4255;48.730;9.156;2022-10-31T01:04:16;14.00;99.90
8436;DHT22;4255;48.730;9.156;2022-10-31T01:06:42;14.10;99.90
8436;DHT22;4255;48.730;9.156;2022-10-31T01:09:07;14.10;99.90
8436;DHT22;4255;48.730;9.156;2022-10-31T01:11:33;13.90;99.90
8436;DHT22;4255;48.730;9.156;2022-10-31T01:13:59;14.00;99.90
8436;DHT22;4255;48.730;9.156;2022-10-31T01:16:26;14.00;99.90
8436;DHT22;4255;48.730;9.156;2022-10-31T01:18:52;14.00;99.90
8436;DHT22;4255;48.730;9.156;2022-10-31T01:21:23;14.00;99.90
8436;DHT22;4255;48.730;9.156;2022-10-31T01:23:50;14.00;99.90
8436;DHT22;4255;48.730;9.156;2022-10-31T01:26:19;13.90;99.90
8436;DHT22;4255;48.730;9.156;2022-10-31T01:28:57;13.90;99.90
8436;DHT22;4255;48.730;9.156;2022-10-31T01:31:26;13.90;99.90
8436;DHT22;4255;48.730;9.156;2022-10-31T01:33:52;13.80;99.90
8436;DHT22;4255;48.730;9.156;2022-10-31T01:36:27;13.90;99.90
8436;DHT22;4255;48.730;9.156;2022-10-31T01:38:57;13.90;99.90
8436;DHT22;4255;48.730;9.156;2022-10-31T01:41:26;13.80;99.90
8436;DHT22;4255;48.730;9.156;2022-10-31T01:43:58;13.80;99.90
8436;DHT22;4255;48.730;9.156;2022-10-31T01:46:31;13.80;99.90
8436;DHT22;4255;48.730;9.156;2022-10-31T01:49:00;13.80;99.90
8436;DHT22;4255;48.730;9.156;2022-10-31T01:51:31;13.90;99.90
8436;DHT22;4255;48.730;9.156;2022-10-31T01:54:02;13.80;99.90
8436;DHT22;4255;48.730;9.156;2022-10-31T01:56:30;13.80;99.90
8436;DHT22;4255;48.730;9.156;2022-10-31T01:58:57;13.80;99.90
8436;DHT22;4255;48.730;9.156;2022-10-31T02:01:25;13.70;99.90
8436;DHT22;4255;48.730;9.156;2022-10-31T02:03:51;13.70;99.90
8436;DHT22;4255;48.730;9.156;2022-10-31T02:09:00;13.80;99.90
8436;DHT22;4255;48.730;9.156;2022-10-31T02:11:28;13.80;99.90
8436;DHT22;4255;48.730;9.156;2022-10-31T02:13:55;13.80;99.90
8436;DHT22;4255;48.730;9.156;2022-10-31T02:16:20;13.80;99.90
8436;DHT22;4255;48.730;9.156;2022-10-31T02:18:46;13.80;99.90
8436;DHT22;4255;48.730;9.156;2022-10-31T02:27:44;13.80;99.90
8436;DHT22;4255;48.730;9.156;2022-10-31T02:32:24;13.80;99.90
8436;DHT22;4255;48.730;9.156;2022-10-31T02:34:55;13.80;99.90
8436;DHT22;4255;48.730;9.156;2022-10-31T02:37:36;13.70;99.90
8436;DHT22;4255;48.730;9.156;2022-10-31T02:40:26;13.70;99.90
8436;DHT22;4255;48.730;9.156;2022-10-31T02:45:42;13.80;99.90
8436;DHT22;4255;48.730;9.156;2022-10-31T02:48:13;13.60;99.90
8436;DHT22;4255;48.730;9.156;2022-10-31T02:50:49;13.60;99.90
8436;DHT22;4255;48.730;9.156;2022-10-31T02:53:16;13.50;99.90
8436;DHT22;4255;48.730;9.156;2022-10-31T02:55:44;13.30;99.90
8436;DHT22;4255;48.730;9.156;2022-10-31T02:58:14;13.30;99.90
8436;DHT22;4255;48.730;9.156;2022-10-31T03:03:22;13.40;99.90
8436;DHT22;4255;48.730;9.156;2022-10-31T03:11:03;13.40;99.90
8436;DHT22;4255;48.730;9.156;2022-10-31T03:18:58;13.40;99.90
8436;DHT22;4255;48.730;9.156;2022-10-31T03:23:57;13.30;99.90
8436;DHT22;4255;48.730;9.156;2022-10-31T03:26:25;13.30;99.90
8436;DHT22;4255;48.730;9.156;2022-10-31T03:28:57;13.30;99.90
8436;DHT22;4255;48.730;9.156;2022-10-31T03:31:27;13.30;99.90
8436;DHT22;4255;48.730;9.156;2022-10-31T03:33:56;13.30;99.90
8436;DHT22;4255;48.730;9.156;2022-10-31T03:36:24;13.30;99.90
8436;DHT22;4255;48.730;9.156;2022-10-31T03:38:51;13.20;99.90
8436;DHT22;4255;48.730;9.156;2022-10-31T03:41:21;13.20;99.90
8436;DHT22;4255;48.730;9.156;2022-10-31T03:44:03;13.10;99.90
8436;DHT22;4255;48.730;9.156;2022-10-31T03:46:30;13.20;99.90
8436;DHT22;4255;48.730;9.156;2022-10-31T03:48:56;13.10;99.90
8436;DHT22;4255;48.730;9.156;2022-10-31T03:51:23;13.10;99.90
8436;DHT22;4255;48.730;9.156;2022-10-31T03:54:17;13.00;99.90
8436;DHT22;4255;48.730;9.156;2022-10-31T03:57:07;13.10;99.90
8436;DHT22;4255;48.730;9.156;2022-10-31T03:59:39;13.10;99.90
8436;DHT22;4255;48.730;9.156;2022-10-31T04:02:10;13.00;99.90
8436;DHT22;4255;48.730;9.156;2022-10-31T04:04:38;12.90;99.90
8436;DHT22;4255;48.730;9.156;2022-10-31T04:07:05;12.90;99.90
8436;DHT22;4255;48.730;9.156;2022-10-31T04:09:35;12.90;99.90
8436;DHT22;4255;48.730;9.156;2022-10-31T04:12:04;13.00;99.90
8436;DHT22;4255;48.730;9.156;2022-10-31T04:14:35;13.00;99.90
8436;DHT22;4255;48.730;9.156;2022-10-31T04:17:03;12.90;99.90
8436;DHT22;4255;48.730;9.156;2022-10-31T04:19:31;12.90;99.90
8436;DHT22;4255;48.730;9.156;2022-10-31T04:21:57;12.90;99.90
8436;DHT22;4255;48.730;9.156;2022-10-31T04:24:23;12.80;99.90
8436;DHT22;4255;48.730;9.156;2022-10-31T04:26:48;12.80;99.90
8436;DHT22;4255;48.730;9.156;2022-10-31T04:29:14;12.80;99.90
8436;DHT22;4255;48.730;9.156;2022-10-31T04:31:39;12.90;99.90
8436;DHT22;4255;48.730;9.156;2022-10-31T04:34:05;12.80;99.90
8436;DHT22;4255;48.730;9.156;2022-10-31T04:36:31;12.80;99.90
8436;DHT22;4255;48.730;9.156;2022-10-31T04:38:56;12.70;99.90
8436;DHT22;4255;48.730;9.156;2022-10-31T04:41:22;12.80;99.90
8436;DHT22;4255;48.730;9.156;2022-10-31T04:43:47;12.80;99.90
8436;DHT22;4255;48.730;9.156;2022-10-31T04:46:13;12.80;99.90
8436;DHT22;4255;48.730;9.156;2022-10-31T04:48:38;12.80;99.90
8436;DHT22;4255;48.730;9.156;2022-10-31T04:51:04;12.80;99.90
8436;DHT22;4255;48.730;9.156;2022-10-31T04:53:30;12.80;99.90
8436;DHT22;4255;48.730;9.156;2022-10-31T04:55:58;12.70;99.90
8436;DHT22;4255;48.730;9.156;2022-10-31T04:58:24;12.70;99.90
8436;DHT22;4255;48.730;9.156;2022-10-31T05:00:54;12.60;99.90
8436;DHT22;4255;48.730;9.156;2022-10-31T05:03:20;12.50;99.90
8436;DHT22;4255;48.730;9.156;2022-10-31T05:05:46;12.50;99.90
8436;DHT22;4255;48.730;9.156;2022-10-31T05:08:12;12.50;99.90
8436;DHT22;4255;48.730;9.156;2022-10-31T05:10:37;12.50;99.90
8436;DHT22;4255;48.730;9.156;2022-10-31T05:13:04;12.60;99.90
8436;DHT22;4255;48.730;9.156;2022-10-31T05:15:30;12.50;99.90
8436;DHT22;4255;48.730;9.156;2022-10-31T05:17:55;12.50;99.90
8436;DHT22;4255;48.730;9.156;2022-10-31T05:20:25;12.50;99.90
8436;DHT22;4255;48.730;9.156;2022-10-31T05:22:53;12.40;99.90
8436;DHT22;4255;48.730;9.156;2022-10-31T05:25:21;12.40;99.90
8436;DHT22;4255;48.730;9.156;2022-10-31T05:27:48;12.40;99.90
8436;DHT22;4255;48.730;9.156;2022-10-31T05:30:16;12.30;99.90
8436;DHT22;4255;48.730;9.156;2022-10-31T05:32:44;12.30;99.90
8436;DHT22;4255;48.730;9.156;2022-10-31T05:35:13;12.30;99.90
8436;DHT22;4255;48.730;9.156;2022-10-31T05:37:39;12.30;99.90
8436;DHT22;4255;48.730;9.156;2022-10-31T05:40:07;12.30;99.90
8436;DHT22;4255;48.730;9.156;2022-10-31T05:42:34;12.30;99.90
8436;DHT22;4255;48.730;9.156;2022-10-31T05:45:00;12.30;99.90
8436;DHT22;4255;48.730;9.156;2022-10-31T05:47:25;12.30;99.90
8436;DHT22;4255;48.730;9.156;2022-10-31T05:49:51;12.20;99.90
8436;DHT22;4255;48.730;9.156;2022-10-31T05:52:17;12.20;99.90
8436;DHT22;4255;48.730;9.156;2022-10-31T05:54:43;12.10;99.90
8436;DHT22;4255;48.730;9.156;2022-10-31T05:57:09;12.20;99.90
8436;DHT22;4255;48.730;9.156;2022-10-31T05:59:34;12.10;99.90
8436;DHT22;4255;48.730;9.156;2022-10-31T06:02:00;12.10;99.90
8436;DHT22;4255;48.730;9.156;2022-10-31T06:04:26;12.10;99.90
8436;DHT22;4255;48.730;9.156;2022-10-31T06:06:51;12.10;99.90
8436;DHT22;4255;48.730;9.156;2022-10-31T06:09:17;12.00;99.90
8436;DHT22;4255;48.730;9.156;2022-10-31T06:11:42;12.10;99.90
8436;DHT22;4255;48.730;9.156;2022-10-31T06:14:08;12.00;99.90
8436;DHT22;4255;48.730;9.156;2022-10-31T06:16:34;12.00;99.90
8436;DHT22;4255;48.730;9.156;2022-10-31T06:18:59;12.00;99.90
8436;DHT22;4255;48.730;9.156;2022-10-31T06:21:25;12.00;99.90
8436;DHT22;4255;48.730;9.156;2022-10-31T06:23:51;12.10;99.90
8436;DHT22;4255;48.730;9.156;2022-10-31T06:26:16;12.10;99.90
8436;DHT22;4255;48.730;9.156;2022-10-31T06:28:42;12.10;99.90
8436;DHT22;4255;48.730;9.156;2022-10-31T06:31:08;12.00;99.90
8436;DHT22;4255;48.730;9.156;2022-10-31T06:33:34;12.00;99.90
8436;DHT22;4255;48.730;9.156;2022-10-31T06:35:59;12.10;99.90
8436;DHT22;4255;48.730;9.156;2022-10-31T06:38:26;12.10;99.90
8436;DHT22;4255;48.730;9.156;2022-10-31T06:40:52;12.20;99.90
8436;DHT22;4255;48.730;9.156;2022-10-31T06:43:19;12.10;99.90
8436;DHT22;4255;48.730;9.156;2022-10-31T06:45:44;12.10;99.90
8436;DHT22;4255;48.730;9.156;2022-10-31T06:48:10;12.10;99.90
8436;DHT22;4255;48.730;9.156;2022-10-31T06:50:36;12.30;99.90
8436;DHT22;4255;48.730;9.156;2022-10-31T06:53:02;12.40;99.90
8436;DHT22;4255;48.730;9.156;2022-10-31T06:55:27;12.60;99.90
8436;DHT22;4255;48.730;9.156;2022-10-31T06:57:58;12.60;99.90
8436;DHT22;4255;48.730;9.156;2022-10-31T07:00:25;12.60;99.90
8436;DHT22;4255;48.730;9.156;2022-10-31T07:02:59;12.70;99.90
8436;DHT22;4255;48.730;9.156;2022-10-31T07:05:25;12.70;99.90
8436;DHT22;4255;48.730;9.156;2022-10-31T07:08:03;12.70;99.90
8436;DHT22;4255;48.730;9.156;2022-10-31T07:10:31;12.70;99.90
8436;DHT22;4255;48.730;9.156;2022-10-31T07:12:58;12.70;99.90
8436;DHT22;4255;48.730;9.156;2022-10-31T07:15:25;12.70;99.90
8436;DHT22;4255;48.730;9.156;2022-10-31T07:17:51;12.80;99.90
8436;DHT22;4255;48.730;9.156;2022-10-31T07:20:17;13.00;99.90
8436;DHT22;4255;48.730;9.156;2022-10-31T07:22:43;13.20;99.90
8436;DHT22;4255;48.730;9.156;2022-10-31T07:25:09;13.30;99.90
8436;DHT22;4255;48.730;9.156;2022-10-31T07:27:39;13.40;99.90
8436;DHT22;4255;48.730;9.156;2022-10-31T07:30:08;13.50;99.90
8436;DHT22;4255;48.730;9.156;2022-10-31T07:32:41;13.60;99.90
8436;DHT22;4255;48.730;9.156;2022-10-31T07:35:12;13.80;99.90
8436;DHT22;4255;48.730;9.156;2022-10-31T07:37:38;13.80;99.90
8436;DHT22;4255;48.730;9.156;2022-10-31T07:40:05;13.90;99.90
8436;DHT22;4255;48.730;9.156;2022-10-31T07:42:38;13.90;99.90
8436;DHT22;4255;48.730;9.156;2022-10-31T07:45:05;14.10;99.90
8436;DHT22;4255;48.730;9.156;2022-10-31T07:47:47;14.10;99.90
8436;DHT22;4255;48.730;9.156;2022-10-31T07:52:43;14.30;99.90
8436;DHT22;4255;48.730;9.156;2022-10-31T07:55:10;14.30;99.90
8436;DHT22;4255;48.730;9.156;2022-10-31T07:57:36;14.30;99.90
8436;DHT22;4255;48.730;9.156;2022-10-31T08:00:05;14.40;99.90
8436;DHT22;4255;48.730;9.156;2022-10-31T08:02:31;14.50;99.90
8436;DHT22;4255;48.730;9.156;2022-10-31T08:04:57;14.60;99.90
8436;DHT22;4255;48.730;9.156;2022-10-31T08:07:25;14.80;99.90
8436;DHT22;4255;48.730;9.156;2022-10-31T08:09:50;14.90;99.90
8436;DHT22;4255;48.730;9.156;2022-10-31T08:12:16;15.10;99.90
8436;DHT22;4255;48.730;9.156;2022-10-31T08:14:41;15.20;99.90
8436;DHT22;4255;48.730;9.156;2022-10-31T08:17:07;15.40;99.90
8436;DHT22;4255;48.730;9.156;2022-10-31T08:19:33;15.60;99.90
8436;DHT22;4255;48.730;9.156;2022-10-31T08:21:58;15.70;99.90
8436;DHT22;4255;48.730;9.156;2022-10-31T08:24:24;15.90;99.90
8436;DHT22;4255;48.730;9.156;2022-10-31T08:26:50;16.00;99.90
8436;DHT22;4255;48.730;9.156;2022-10-31T08:29:16;15.90;99.90
8436;DHT22;4255;48.730;9.156;2022-10-31T08:31:42;15.80;99.90
8436;DHT22;4255;48.730;9.156;2022-10-31T08:34:08;15.90;99.90
8436;DHT22;4255;48.730;9.156;2022-10-31T08:36:34;15.90;99.90
8436;DHT22;4255;48.730;9.156;2022-10-31T08:38:59;15.90;99.90
8436;DHT22;4255;48.730;9.156;2022-10-31T08:41:25;15.90;99.90
8436;DHT22;4255;48.730;9.156;2022-10-31T08:43:51;16.00;99.90
8436;DHT22;4255;48.730;9.156;2022-10-31T08:46:16;16.30;99.90
8436;DHT22;4255;48.730;9.156;2022-10-31T08:48:42;16.40;99.90
8436;DHT22;4255;48.730;9.156;2022-10-31T08:51:09;16.60;99.90
8436;DHT22;4255;48.730;9.156;2022-10-31T08:53:35;16.80;99.90
8436;DHT22;4255;48.730;9.156;2022-10-31T08:56:00;17.00;99.90
8436;DHT22;4255;48.730;9.156;2022-10-31T08:58:26;16.90;99.90
8436;DHT22;4255;48.730;9.156;2022-10-31T09:00:53;16.90;99.90
8436;DHT22;4255;48.730;9.156;2022-10-31T09:03:20;16.80;99.90
8436;DHT22;4255;48.730;9.156;2022-10-31T09:05:46;16.90;99.90
8436;DHT22;4255;48.730;9.156;2022-10-31T09:08:13;16.80;99.90
8436;DHT22;4255;48.730;9.156;2022-10-31T09:10:40;16.80;99.90
8436;DHT22;4255;48.730;9.156;2022-10-31T09:13:09;16.70;99.90
8436;DHT22;4255;48.730;9.156;2022-10-31T09:15:37;16.70;99.90
8436;DHT22;4255;48.730;9.156;2022-10-31T09:18:04;16.80;99.90
8436;DHT22;4255;48.730;9.156;2022-10-31T09:20:31;17.00;99.90
8436;DHT22;4255;48.730;9.156;2022-10-31T09:22:59;17.20;99.90
8436;DHT22;4255;48.730;9.156;2022-10-31T09:25:26;17.30;99.90
8436;DHT22;4255;48.730;9.156;2022-10-31T09:27:58;17.40;99.90
8436;DHT22;4255;48.730;9.156;2022-10-31T09:30:26;17.60;99.90
8436;DHT22;4255;48.730;9.156;2022-10-31T09:32:57;17.70;99.90
8436;DHT22;4255;48.730;9.156;2022-10-31T09:35:24;17.80;99.90
8436;DHT22;4255;48.730;9.156;2022-10-31T09:40:22;17.90;99.90
8436;DHT22;4255;48.730;9.156;2022-10-31T09:51:36;18.10;99.90
8436;DHT22;4255;48.730;9.156;2022-10-31T09:57:12;18.20;99.90
8436;DHT22;4255;48.730;9.156;2022-10-31T09:59:40;18.40;99.90
8436;DHT22;4255;48.730;9.156;2022-10-31T10:15:43;19.10;99.90
8436;DHT22;4255;48.730;9.156;2022-10-31T10:18:32;19.00;99.90
8436;DHT22;4255;48.730;9.156;2022-10-31T10:26:21;19.30;99.90
8436;DHT22;4255;48.730;9.156;2022-10-31T10:28:57;19.30;99.90
8436;DHT22;4255;48.730;9.156;2022-10-31T10:31:42;19.50;99.90
8436;DHT22;4255;48.730;9.156;2022-10-31T10:35:10;19.70;99.90
8436;DHT22;4255;48.730;9.156;2022-10-31T10:37:36;19.70;99.90
8436;DHT22;4255;48.730;9.156;2022-10-31T10:40:25;19.90;99.90
8436;DHT22;4255;48.730;9.156;2022-10-31T10:54:59;20.40;99.90
8436;DHT22;4255;48.730;9.156;2022-10-31T11:02:46;20.40;99.90
8436;DHT22;4255;48.730;9.156;2022-10-31T11:07:45;20.30;99.90
8436;DHT22;4255;48.730;9.156;2022-10-31T11:10:15;20.10;99.90
8436;DHT22;4255;48.730;9.156;2022-10-31T11:12:44;20.10;99.90
8436;DHT22;4255;48.730;9.156;2022-10-31T11:15:22;20.10;99.90
8436;DHT22;4255;48.730;9.156;2022-10-31T11:17:50;20.10;99.90
8436;DHT22;4255;48.730;9.156;2022-10-31T11:22:44;20.10;99.90
8436;DHT22;4255;48.730;9.156;2022-10-31T11:27:45;20.30;99.90
8436;DHT22;4255;48.730;9.156;2022-10-31T11:30:13;20.30;99.90
8436;DHT22;4255;48.730;9.156;2022-10-31T11:32:49;20.30;99.90
8436;DHT22;4255;48.730;9.156;2022-10-31T11:35:19;20.50;99.90
8436;DHT22;4255;48.730;9.156;2022-10-31T11:37:47;20.50;99.90
8436;DHT22;4255;48.730;9.156;2022-10-31T11:40:31;20.60;99.90
8436;DHT22;4255;48.730;9.156;2022-10-31T11:42:58;20.70;99.90
8436;DHT22;4255;48.730;9.156;2022-10-31T11:45:31;20.70;99.90
8436;DHT22;4255;48.730;9.156;2022-10-31T11:47:58;20.80;99.90
8436;DHT22;4255;48.730;9.156;2022-10-31T11:50:35;20.80;99.90
8436;DHT22;4255;48.730;9.156;2022-10-31T11:53:03;21.00;99.90
8436;DHT22;4255;48.730;9.156;2022-10-31T11:55:35;21.10;99.90
8436;DHT22;4255;48.730;9.156;2022-10-31T11:58:02;21.00;99.90
8436;DHT22;4255;48.730;9.156;2022-10-31T12:00:38;20.90;99.90
8436;DHT22;4255;48.730;9.156;2022-10-31T12:05:53;21.00;99.90
8436;DHT22;4255;48.730;9.156;2022-10-31T12:08:21;20.90;99.90
8436;DHT22;4255;48.730;9.156;2022-10-31T12:16:36;21.00;99.90
8436;DHT22;4255;48.730;9.156;2022-10-31T12:19:17;21.10;99.90
8436;DHT22;4255;48.730;9.156;2022-10-31T12:24:28;21.60;99.90
8436;DHT22;4255;48.730;9.156;2022-10-31T12:29:53;21.70;99.90
8436;DHT22;4255;48.730;9.156;2022-10-31T12:44:05;21.70;99.90
8436;DHT22;4255;48.730;9.156;2022-10-31T12:46:44;21.80;99.90
8436;DHT22;4255;48.730;9.156;2022-10-31T12:54:48;21.70;99.90
8436;DHT22;4255;48.730;9.156;2022-10-31T12:57:28;21.70;99.90
8436;DHT22;4255;48.730;9.156;2022-10-31T13:00:02;21.50;99.90
8436;DHT22;4255;48.730;9.156;2022-10-31T13:02:51;21.30;99.90
8436;DHT22;4255;48.730;9.156;2022-10-31T13:08:08;21.40;99.90
8436;DHT22;4255;48.730;9.156;2022-10-31T13:10:42;21.40;99.90
8436;DHT22;4255;48.730;9.156;2022-10-31T13:13:40;21.40;99.90
8436;DHT22;4255;48.730;9.156;2022-10-31T13:19:48;21.20;99.90
8436;DHT22;4255;48.730;9.156;2022-10-31T13:22:20;20.80;99.90
8436;DHT22;4255;48.730;9.156;2022-10-31T13:24:50;20.70;99.90
8436;DHT22;4255;48.730;9.156;2022-10-31T13:27:26;20.70;99.90
8436;DHT22;4255;48.730;9.156;2022-10-31T13:30:16;20.70;99.90
8436;DHT22;4255;48.730;9.156;2022-10-31T13:32:45;20.70;99.90
8436;DHT22;4255;48.730;9.156;2022-10-31T13:36:05;20.80;99.90
8436;DHT22;4255;48.730;9.156;2022-10-31T13:38:38;20.80;99.90
8436;DHT22;4255;48.730;9.156;2022-10-31T13:44:11;21.30;99.90
8436;DHT22;4255;48.730;9.156;2022-10-31T13:46:40;21.40;99.90
8436;DHT22;4255;48.730;9.156;2022-10-31T13:54:46;21.80;99.90
8436;DHT22;4255;48.730;9.156;2022-10-31T13:57:16;21.80;99.90
8436;DHT22;4255;48.730;9.156;2022-10-31T13:59:49;21.70;99.90
8436;DHT22;4255;48.730;9.156;2022-10-31T14:02:17;21.50;99.90
8436;DHT22;4255;48.730;9.156;2022-10-31T14:04:53;21.50;99.90
8436;DHT22;4255;48.730;9.156;2022-10-31T14:07:22;21.50;99.90
8436;DHT22;4255;48.730;9.156;2022-10-31T14:09:55;21.50;99.90
8436;DHT22;4255;48.730;9.156;2022-10-31T14:12:35;21.70;99.90
8436;DHT22;4255;48.730;9.156;2022-10-31T14:15:23;21.40;99.90
8436;DHT22;4255;48.730;9.156;2022-10-31T14:26:30;20.90;99.90
8436;DHT22;4255;48.730;9.156;2022-10-31T14:29:24;21.00;99.90
8436;DHT22;4255;48.730;9.156;2022-10-31T14:32:06;21.10;99.90
8436;DHT22;4255;48.730;9.156;2022-10-31T14:45:57;21.30;99.90
8436;DHT22;4255;48.730;9.156;2022-10-31T14:48:48;21.20;99.90
8436;DHT22;4255;48.730;9.156;2022-10-31T14:51:23;21.20;99.90
8436;DHT22;4255;48.730;9.156;2022-10-31T14:53:57;21.20;99.90
8436;DHT22;4255;48.730;9.156;2022-10-31T14:56:26;21.20;99.90
8436;DHT22;4255;48.730;9.156;2022-10-31T14:59:01;21.20;99.90
8436;DHT22;4255;48.730;9.156;2022-10-31T15:01:32;21.20;99.90
8436;DHT22;4255;48.730;9.156;2022-10-31T15:04:13;21.20;99.90
8436;DHT22;4255;48.730;9.156;2022-10-31T15:06:47;21.30;99.90
8436;DHT22;4255;48.730;9.156;2022-10-31T15:09:32;21.20;99.90
8436;DHT22;4255;48.730;9.156;2022-10-31T15:14:50;21.30;99.90
8436;DHT22;4255;48.730;9.156;2022-10-31T15:17:16;21.00;99.90
8436;DHT22;4255;48.730;9.156;2022-10-31T15:19:42;20.90;99.90
8436;DHT22;4255;48.730;9.156;2022-10-31T15:22:15;20.80;99.90
8436;DHT22;4255;48.730;9.156;2022-10-31T15:24:42;20.80;99.90
8436;DHT22;4255;48.730;9.156;2022-10-31T15:27:17;20.80;99.90
8436;DHT22;4255;48.730;9.156;2022-10-31T15:29:54;20.70;99.90
8436;DHT22;4255;48.730;9.156;2022-10-31T15:32:25;20.50;99.90
8436;DHT22;4255;48.730;9.156;2022-10-31T15:34:52;20.40;99.90
8436;DHT22;4255;48.730;9.156;2022-10-31T15:37:20;20.30;99.90
8436;DHT22;4255;48.730;9.156;2022-10-31T15:39:47;20.20;99.90
8436;DHT22;4255;48.730;9.156;2022-10-31T15:45:19;19.90;99.90
8436;DHT22;4255;48.730;9.156;2022-10-31T15:47:59;19.70;99.90
8436;DHT22;4255;48.730;9.156;2022-10-31T15:53:03;19.60;99.90
8436;DHT22;4255;48.730;9.156;2022-10-31T15:55:55;19.50;99.90
8436;DHT22;4255;48.730;9.156;2022-10-31T15:58:21;19.50;99.90
8436;DHT22;4255;48.730;9.156;2022-10-31T16:01:04;19.30;99.90
8436;DHT22;4255;48.730;9.156;2022-10-31T16:03:31;19.10;99.90
8436;DHT22;4255;48.730;9.156;2022-10-31T16:06:02;19.10;99.90
8436;DHT22;4255;48.730;9.156;2022-10-31T16:11:16;19.00;99.90
8436;DHT22;4255;48.730;9.156;2022-10-31T16:16:25;18.90;99.90
8436;DHT22;4255;48.730;9.156;2022-10-31T16:18:52;18.60;99.90
8436;DHT22;4255;48.730;9.156;2022-10-31T16:21:37;18.40;99.90
8436;DHT22;4255;48.730;9.156;2022-10-31T16:26:41;18.30;99.90
8436;DHT22;4255;48.730;9.156;2022-10-31T16:29:43;18.30;99.90
8436;DHT22;4255;48.730;9.156;2022-10-31T16:32:29;18.20;99.90
8436;DHT22;4255;48.730;9.156;2022-10-31T16:35:28;18.10;99.90
8436;DHT22;4255;48.730;9.156;2022-10-31T16:37:56;18.00;99.90
8436;DHT22;4255;48.730;9.156;2022-10-31T16:40:23;17.90;99.90
8436;DHT22;4255;48.730;9.156;2022-10-31T16:42:49;17.80;99.90
8436;DHT22;4255;48.730;9.156;2022-10-31T16:45:26;17.70;99.90
8436;DHT22;4255;48.730;9.156;2022-10-31T16:47:52;17.60;99.90
8436;DHT22;4255;48.730;9.156;2022-10-31T16:50:23;17.30;99.90
8436;DHT22;4255;48.730;9.156;2022-10-31T16:52:49;17.30;99.90
8436;DHT22;4255;48.730;9.156;2022-10-31T16:55:16;17.20;99.90
8436;DHT22;4255;48.730;9.156;2022-10-31T16:57:50;17.00;99.90
8436;DHT22;4255;48.730;9.156;2022-10-31T17:00:22;16.80;99.90
8436;DHT22;4255;48.730;9.156;2022-10-31T17:02:52;16.70;99.90
8436;DHT22;4255;48.730;9.156;2022-10-31T17:05:20;16.50;99.90
8436;DHT22;4255;48.730;9.156;2022-10-31T17:07:46;16.40;99.90
8436;DHT22;4255;48.730;9.156;2022-10-31T17:10:13;16.40;99.90
8436;DHT22;4255;48.730;9.156;2022-10-31T17:12:44;16.40;99.90
8436;DHT22;4255;48.730;9.156;2022-10-31T17:15:20;16.40;99.90
8436;DHT22;4255;48.730;9.156;2022-10-31T17:17:46;16.50;99.90
8436;DHT22;4255;48.730;9.156;2022-10-31T17:22:47;16.50;99.90
8436;DHT22;4255;48.730;9.156;2022-10-31T17:25:15;16.40;99.90
8436;DHT22;4255;48.730;9.156;2022-10-31T17:27:41;16.20;99.90
8436;DHT22;4255;48.730;9.156;2022-10-31T17:30:08;16.00;99.90
8436;DHT22;4255;48.730;9.156;2022-10-31T17:32:34;16.00;99.90
8436;DHT22;4255;48.730;9.156;2022-10-31T17:34:59;16.00;99.90
8436;DHT22;4255;48.730;9.156;2022-10-31T17:37:25;16.00;99.90
8436;DHT22;4255;48.730;9.156;2022-10-31T17:39:51;16.00;99.90
8436;DHT22;4255;48.730;9.156;2022-10-31T17:42:16;16.00;99.90
8436;DHT22;4255;48.730;9.156;2022-10-31T17:44:42;16.00;99.90
8436;DHT22;4255;48.730;9.156;2022-10-31T17:47:07;16.00;99.90
8436;DHT22;4255;48.730;9.156;2022-10-31T17:49:33;16.00;99.90
8436;DHT22;4255;48.730;9.156;2022-10-31T17:51:58;16.10;99.90
8436;DHT22;4255;48.730;9.156;2022-10-31T17:54:24;16.00;99.90
8436;DHT22;4255;48.730;9.156;2022-10-31T17:56:49;16.00;99.90
8436;DHT22;4255;48.730;9.156;2022-10-31T17:59:17;15.80;99.90
8436;DHT22;4255;48.730;9.156;2022-10-31T18:01:42;15.70;99.90
8436;DHT22;4255;48.730;9.156;2022-10-31T18:04:08;15.70;99.90
8436;DHT22;4255;48.730;9.156;2022-10-31T18:06:33;15.70;99.90
8436;DHT22;4255;48.730;9.156;2022-10-31T18:09:05;15.70;99.90
8436;DHT22;4255;48.730;9.156;2022-10-31T18:11:31;15.70;99.90
8436;DHT22;4255;48.730;9.156;2022-10-31T18:13:58;15.60;99.90
8436;DHT22;4255;48.730;9.156;2022-10-31T18:16:24;15.60;99.90
8436;DHT22;4255;48.730;9.156;2022-10-31T18:18:56;15.70;99.90
8436;DHT22;4255;48.730;9.156;2022-10-31T18:21:24;15.70;99.90
8436;DHT22;4255;48.730;9.156;2022-10-31T18:23:57;15.70;99.90
8436;DHT22;4255;48.730;9.156;2022-10-31T18:26:24;15.70;99.90
8436;DHT22;4255;48.730;9.156;2022-10-31T18:28:51;15.60;99.90
8436;DHT22;4255;48.730;9.156;2022-10-31T18:31:17;15.40;99.90
8436;DHT22;4255;48.730;9.156;2022-10-31T18:33:43;15.20;99.90
8436;DHT22;4255;48.730;9.156;2022-10-31T18:36:10;15.00;99.90
8436;DHT22;4255;48.730;9.156;2022-10-31T18:38:38;14.90;99.90
8436;DHT22;4255;48.730;9.156;2022-10-31T18:41:04;14.90;99.90
8436;DHT22;4255;48.730;9.156;2022-10-31T18:43:30;15.00;99.90
8436;DHT22;4255;48.730;9.156;2022-10-31T18:46:03;15.10;99.90
8436;DHT22;4255;48.730;9.156;2022-10-31T18:48:29;14.90;99.90
8436;DHT22;4255;48.730;9.156;2022-10-31T18:50:57;14.90;99.90
8436;DHT22;4255;48.730;9.156;2022-10-31T18:53:25;15.00;99.90
8436;DHT22;4255;48.730;9.156;2022-10-31T18:55:51;15.10;99.90
8436;DHT22;4255;48.730;9.156;2022-10-31T18:58:17;15.10;99.90
8436;DHT22;4255;48.730;9.156;2022-10-31T19:00:42;15.20;99.90
8436;DHT22;4255;48.730;9.156;2022-10-31T19:03:09;15.20;99.90
8436;DHT22;4255;48.730;9.156;2022-10-31T19:05:34;15.40;99.90
8436;DHT22;4255;48.730;9.156;2022-10-31T19:08:00;15.20;99.90
8436;DHT22;4255;48.730;9.156;2022-10-31T19:10:25;15.10;99.90
8436;DHT22;4255;48.730;9.156;2022-10-31T19:12:51;15.00;99.90